sensor_id;sensor_type;location;lat;lon;timestamp;temperature;humidity
3023;DHT22;1521;53.584;9.938;2023-04-24T00:01:47;12.20;1.00
3023;DHT22;1521;53.584;9.938;2023-04-24T00:04:13;12.20;99.90
3023;DHT22;1521;53.584;9.938;2023-04-24T00:06:41;12.10;99.90
3023;DHT22;1521;53.584;9.938;2023-04-24T00:09:08;12.10;99.90
3023;DHT22;1521;53.584;9.938;2023-04-24T00:11:36;12.10;1.00
3023;DHT22;1521;53.584;9.938;2023-04-24T00:14:02;12.00;99.90
3023;DHT22;1521;53.584;9.938;2023-04-24T00:16:28;12.00;99.90
3023;DHT22;1521;53.584;9.938;2023-04-24T00:18:54;11.90;1.00
3023;DHT22;1521;53.584;9.938;2023-04-24T00:21:19;11.90;1.00
3023;DHT22;1521;53.584;9.938;2023-04-24T00:23:46;11.90;99.90
3023;DHT22;1521;53.584;9.938;2023-04-24T00:26:12;11.90;1.00
3023;DHT22;1521;53.584;9.938;2023-04-24T00:28:38;11.90;99.90
3023;DHT22;1521;53.584;9.938;2023-04-24T00:31:03;11.90;1.00
3023;DHT22;1521;53.584;9.938;2023-04-24T00:33:29;11.90;99.90
3023;DHT22;1521;53.584;9.938;2023-04-24T00:35:55;11.90;1.00
3023;DHT22;1521;53.584;9.938;2023-04-24T00:38:20;11.80;8.60
3023;DHT22;1521;53.584;9.938;2023-04-24T00:40:47;11.80;99.90
3023;DHT22;1521;53.584;9.938;2023-04-24T00:43:13;11.80;99.90
3023;DHT22;1521;53.584;9.938;2023-04-24T00:45:39;11.80;1.00
3023;DHT22;1521;53.584;9.938;2023-04-24T00:48:05;11.80;1.00
3023;DHT22;1521;53.584;9.938;2023-04-24T00:50:31;11.80;1.00
3023;DHT22;1521;53.584;9.938;2023-04-24T00:52:56;11.80;1.00
3023;DHT22;1521;53.584;9.938;2023-04-24T00:55:22;11.80;1.00
3023;DHT22;1521;53.584;9.938;2023-04-24T00:57:48;11.70;1.00
3023;DHT22;1521;53.584;9.938;2023-04-24T01:00:15;11.80;1.00
3023;DHT22;1521;53.584;9.938;2023-04-24T01:02:45;11.80;99.90
3023;DHT22;1521;53.584;9.938;2023-04-24T01:05:12;11.70;99.90
3023;DHT22;1521;53.584;9.938;2023-04-24T01:07:39;11.60;1.00
3023;DHT22;1521;53.584;9.938;2023-04-24T01:10:07;11.70;1.00
3023;DHT22;1521;53.584;9.938;2023-04-24T01:12:33;11.70;1.00
3023;DHT22;1521;53.584;9.938;2023-04-24T01:14:59;11.60;99.90
3023;DHT22;1521;53.584;9.938;2023-04-24T01:17:25;11.60;99.90
3023;DHT22;1521;53.584;9.938;2023-04-24T01:19:50;11.50;99.90
3023;DHT22;1521;53.584;9.938;2023-04-24T01:22:19;11.50;1.00
3023;DHT22;1521;53.584;9.938;2023-04-24T01:24:46;11.50;1.00
3023;DHT22;1521;53.584;9.938;2023-04-24T01:27:12;11.50;1.00
3023;DHT22;1521;53.584;9.938;2023-04-24T01:29:38;11.50;1.00
3023;DHT22;1521;53.584;9.938;2023-04-24T01:32:04;11.60;1.00
3023;DHT22;1521;53.584;9.938;2023-04-24T01:34:30;11.60;99.90
3023;DHT22;1521;53.584;9.938;2023-04-24T01:36:56;11.70;99.90
3023;DHT22;1521;53.584;9.938;2023-04-24T01:39:22;11.70;99.90
3023;DHT22;1521;53.584;9.938;2023-04-24T01:41:49;11.60;1.00
3023;DHT22;1521;53.584;9.938;2023-04-24T01:44:15;11.70;21.70
3023;DHT22;1521;53.584;9.938;2023-04-24T01:46:41;11.70;99.90
3023;DHT22;1521;53.584;9.938;2023-04-24T01:49:07;11.70;99.90
3023;DHT22;1521;53.584;9.938;2023-04-24T01:51:32;11.80;14.60
3023;DHT22;1521;53.584;9.938;2023-04-24T01:53:58;11.80;99.90
3023;DHT22;1521;53.584;9.938;2023-04-24T01:56:24;11.80;99.90
3023;DHT22;1521;53.584;9.938;2023-04-24T01:58:52;11.90;43.70
3023;DHT22;1521;53.584;9.938;2023-04-24T02:01:19;11.90;95.90
3023;DHT22;1521;53.584;9.938;2023-04-24T02:03:45;11.90;37.80
3023;DHT22;1521;53.584;9.938;2023-04-24T02:06:11;11.90;1.00
3023;DHT22;1521;53.584;9.938;2023-04-24T02:08:36;11.90;99.90
3023;DHT22;1521;53.584;9.938;2023-04-24T02:11:02;11.90;99.90
3023;DHT22;1521;53.584;9.938;2023-04-24T02:13:28;11.90;99.90
3023;DHT22;1521;53.584;9.938;2023-04-24T02:15:53;11.80;99.90
3023;DHT22;1521;53.584;9.938;2023-04-24T02:18:19;11.80;1.00
3023;DHT22;1521;53.584;9.938;2023-04-24T02:20:45;11.80;1.00
3023;DHT22;1521;53.584;9.938;2023-04-24T02:23:11;11.70;1.00
3023;DHT22;1521;53.584;9.938;2023-04-24T02:25:36;11.70;1.00
3023;DHT22;1521;53.584;9.938;2023-04-24T02:28:02;11.70;1.00
3023;DHT22;1521;53.584;9.938;2023-04-24T02:30:28;11.70;1.00
3023;DHT22;1521;53.584;9.938;2023-04-24T02:32:53;11.80;99.90
3023;DHT22;1521;53.584;9.938;2023-04-24T02:35:19;11.70;99.90
3023;DHT22;1521;53.584;9.938;2023-04-24T02:37:45;11.60;1.00
3023;DHT22;1521;53.584;9.938;2023-04-24T02:40:11;11.60;1.00
3023;DHT22;1521;53.584;9.938;2023-04-24T02:42:36;11.60;1.00
3023;DHT22;1521;53.584;9.938;2023-04-24T02:45:02;11.60;1.00
3023;DHT22;1521;53.584;9.938;2023-04-24T02:47:28;11.50;1.00
3023;DHT22;1521;53.584;9.938;2023-04-24T02:49:53;11.50;1.00
3023;DHT22;1521;53.584;9.938;2023-04-24T02:52:19;11.40;1.00
3023;DHT22;1521;53.584;9.938;2023-04-24T02:54:44;11.30;15.50
3023;DHT22;1521;53.584;9.938;2023-04-24T02:57:10;11.30;99.90
3023;DHT22;1521;53.584;9.938;2023-04-24T02:59:36;11.30;99.90
3023;DHT22;1521;53.584;9.938;2023-04-24T03:02:01;11.30;99.90
3023;DHT22;1521;53.584;9.938;2023-04-24T03:04:27;11.20;99.90
3023;DHT22;1521;53.584;9.938;2023-04-24T03:06:52;11.20;99.90
3023;DHT22;1521;53.584;9.938;2023-04-24T03:09:20;11.20;99.90
3023;DHT22;1521;53.584;9.938;2023-04-24T03:11:46;11.20;99.90
3023;DHT22;1521;53.584;9.938;2023-04-24T03:14:11;11.20;99.90
3023;DHT22;1521;53.584;9.938;2023-04-24T03:16:37;11.20;99.90
3023;DHT22;1521;53.584;9.938;2023-04-24T03:19:03;11.10;99.90
3023;DHT22;1521;53.584;9.938;2023-04-24T03:21:28;11.00;99.90
3023;DHT22;1521;53.584;9.938;2023-04-24T03:23:54;10.90;99.90
3023;DHT22;1521;53.584;9.938;2023-04-24T03:26:20;10.90;1.00
3023;DHT22;1521;53.584;9.938;2023-04-24T03:28:45;10.90;99.90
3023;DHT22;1521;53.584;9.938;2023-04-24T03:31:11;10.90;99.90
3023;DHT22;1521;53.584;9.938;2023-04-24T03:33:36;10.90;99.90
3023;DHT22;1521;53.584;9.938;2023-04-24T03:36:02;11.00;99.90
3023;DHT22;1521;53.584;9.938;2023-04-24T03:38:28;10.90;99.90
3023;DHT22;1521;53.584;9.938;2023-04-24T03:40:53;10.90;99.90
3023;DHT22;1521;53.584;9.938;2023-04-24T03:43:19;10.80;99.90
3023;DHT22;1521;53.584;9.938;2023-04-24T03:45:45;10.80;99.90
3023;DHT22;1521;53.584;9.938;2023-04-24T03:48:10;10.80;57.50
3023;DHT22;1521;53.584;9.938;2023-04-24T03:50:36;10.80;1.00
3023;DHT22;1521;53.584;9.938;2023-04-24T03:53:01;10.70;1.00
3023;DHT22;1521;53.584;9.938;2023-04-24T03:55:27;10.70;1.00
3023;DHT22;1521;53.584;9.938;2023-04-24T03:57:53;10.70;1.00
3023;DHT22;1521;53.584;9.938;2023-04-24T04:00:18;10.70;99.90
3023;DHT22;1521;53.584;9.938;2023-04-24T04:02:44;10.80;99.90
3023;DHT22;1521;53.584;9.938;2023-04-24T04:05:10;10.80;99.90
3023;DHT22;1521;53.584;9.938;2023-04-24T04:07:36;10.80;99.90
3023;DHT22;1521;53.584;9.938;2023-04-24T04:10:01;10.80;99.90
3023;DHT22;1521;53.584;9.938;2023-04-24T04:12:27;10.80;99.90
3023;DHT22;1521;53.584;9.938;2023-04-24T04:14:52;10.80;99.90
3023;DHT22;1521;53.584;9.938;2023-04-24T04:17:18;10.70;87.40
3023;DHT22;1521;53.584;9.938;2023-04-24T04:19:43;10.70;83.80
3023;DHT22;1521;53.584;9.938;2023-04-24T04:22:10;10.60;88.80
3023;DHT22;1521;53.584;9.938;2023-04-24T04:24:35;10.70;28.80
3023;DHT22;1521;53.584;9.938;2023-04-24T04:27:04;10.80;9.30
3023;DHT22;1521;53.584;9.938;2023-04-24T04:29:30;10.80;1.00
3023;DHT22;1521;53.584;9.938;2023-04-24T04:31:56;10.80;1.00
3023;DHT22;1521;53.584;9.938;2023-04-24T04:34:22;10.80;1.00
3023;DHT22;1521;53.584;9.938;2023-04-24T04:36:48;10.80;1.00
3023;DHT22;1521;53.584;9.938;2023-04-24T04:39:15;10.70;1.00
3023;DHT22;1521;53.584;9.938;2023-04-24T04:41:42;10.80;1.00
3023;DHT22;1521;53.584;9.938;2023-04-24T04:44:07;10.80;1.00
3023;DHT22;1521;53.584;9.938;2023-04-24T04:46:34;10.80;1.00
3023;DHT22;1521;53.584;9.938;2023-04-24T04:49:01;10.80;1.00
3023;DHT22;1521;53.584;9.938;2023-04-24T04:51:27;10.90;1.00
3023;DHT22;1521;53.584;9.938;2023-04-24T04:53:53;11.00;1.00
3023;DHT22;1521;53.584;9.938;2023-04-24T04:56:18;11.00;1.00
3023;DHT22;1521;53.584;9.938;2023-04-24T04:58:44;11.10;1.00
3023;DHT22;1521;53.584;9.938;2023-04-24T05:01:10;11.10;1.00
3023;DHT22;1521;53.584;9.938;2023-04-24T05:03:35;11.10;1.00
3023;DHT22;1521;53.584;9.938;2023-04-24T05:06:01;11.10;1.00
3023;DHT22;1521;53.584;9.938;2023-04-24T05:08:27;11.00;1.00
3023;DHT22;1521;53.584;9.938;2023-04-24T05:10:53;11.00;1.00
3023;DHT22;1521;53.584;9.938;2023-04-24T05:13:19;11.00;1.00
3023;DHT22;1521;53.584;9.938;2023-04-24T05:15:45;10.90;1.00
3023;DHT22;1521;53.584;9.938;2023-04-24T05:18:11;11.00;1.00
3023;DHT22;1521;53.584;9.938;2023-04-24T05:20:36;11.00;1.00
3023;DHT22;1521;53.584;9.938;2023-04-24T05:23:02;11.10;1.00
3023;DHT22;1521;53.584;9.938;2023-04-24T05:25:27;11.30;1.00
3023;DHT22;1521;53.584;9.938;2023-04-24T05:27:53;11.40;1.00
3023;DHT22;1521;53.584;9.938;2023-04-24T05:30:19;11.50;1.00
3023;DHT22;1521;53.584;9.938;2023-04-24T05:32:45;11.50;1.00
3023;DHT22;1521;53.584;9.938;2023-04-24T05:35:11;11.50;1.00
3023;DHT22;1521;53.584;9.938;2023-04-24T05:37:36;11.50;1.00
3023;DHT22;1521;53.584;9.938;2023-04-24T05:40:03;11.50;1.00
3023;DHT22;1521;53.584;9.938;2023-04-24T05:42:31;11.60;1.00
3023;DHT22;1521;53.584;9.938;2023-04-24T05:44:56;11.70;1.00
3023;DHT22;1521;53.584;9.938;2023-04-24T05:47:22;11.80;1.00
3023;DHT22;1521;53.584;9.938;2023-04-24T05:49:48;12.00;1.00
3023;DHT22;1521;53.584;9.938;2023-04-24T05:52:13;12.10;1.00
3023;DHT22;1521;53.584;9.938;2023-04-24T05:54:39;12.20;1.00
3023;DHT22;1521;53.584;9.938;2023-04-24T05:57:04;12.40;1.00
3023;DHT22;1521;53.584;9.938;2023-04-24T05:59:36;12.50;1.00
3023;DHT22;1521;53.584;9.938;2023-04-24T06:02:02;12.70;1.00
3023;DHT22;1521;53.584;9.938;2023-04-24T06:04:28;12.80;1.00
3023;DHT22;1521;53.584;9.938;2023-04-24T06:06:53;12.90;1.00
3023;DHT22;1521;53.584;9.938;2023-04-24T06:09:22;12.90;1.00
3023;DHT22;1521;53.584;9.938;2023-04-24T06:11:48;13.00;1.00
3023;DHT22;1521;53.584;9.938;2023-04-24T06:14:14;13.10;1.00
3023;DHT22;1521;53.584;9.938;2023-04-24T06:16:42;13.10;1.00
3023;DHT22;1521;53.584;9.938;2023-04-24T06:19:07;13.20;1.00
3023;DHT22;1521;53.584;9.938;2023-04-24T06:21:33;13.30;1.00
3023;DHT22;1521;53.584;9.938;2023-04-24T06:23:59;13.40;1.00
3023;DHT22;1521;53.584;9.938;2023-04-24T06:26:25;13.40;1.00
3023;DHT22;1521;53.584;9.938;2023-04-24T06:28:52;13.50;1.00
3023;DHT22;1521;53.584;9.938;2023-04-24T06:31:19;13.50;1.00
3023;DHT22;1521;53.584;9.938;2023-04-24T06:33:45;13.70;1.00
3023;DHT22;1521;53.584;9.938;2023-04-24T06:36:11;13.80;1.00
3023;DHT22;1521;53.584;9.938;2023-04-24T06:38:37;14.00;1.00
3023;DHT22;1521;53.584;9.938;2023-04-24T06:41:02;14.00;1.00
3023;DHT22;1521;53.584;9.938;2023-04-24T06:43:30;13.80;1.00
3023;DHT22;1521;53.584;9.938;2023-04-24T06:45:57;13.80;1.00
3023;DHT22;1521;53.584;9.938;2023-04-24T06:48:24;13.90;1.00
3023;DHT22;1521;53.584;9.938;2023-04-24T06:50:50;14.20;1.00
3023;DHT22;1521;53.584;9.938;2023-04-24T06:53:16;14.50;1.00
3023;DHT22;1521;53.584;9.938;2023-04-24T06:55:42;14.40;1.00
3023;DHT22;1521;53.584;9.938;2023-04-24T06:58:08;14.20;1.00
3023;DHT22;1521;53.584;9.938;2023-04-24T07:00:34;14.10;1.00
3023;DHT22;1521;53.584;9.938;2023-04-24T07:03:00;13.90;1.00
3023;DHT22;1521;53.584;9.938;2023-04-24T07:05:26;14.10;1.00
3023;DHT22;1521;53.584;9.938;2023-04-24T07:07:51;14.10;1.00
3023;DHT22;1521;53.584;9.938;2023-04-24T07:10:17;14.20;1.00
3023;DHT22;1521;53.584;9.938;2023-04-24T07:12:43;14.50;1.00
3023;DHT22;1521;53.584;9.938;2023-04-24T07:15:09;14.60;1.00
3023;DHT22;1521;53.584;9.938;2023-04-24T07:17:35;14.30;1.00
3023;DHT22;1521;53.584;9.938;2023-04-24T07:20:04;14.20;1.00
3023;DHT22;1521;53.584;9.938;2023-04-24T07:22:29;14.20;1.00
3023;DHT22;1521;53.584;9.938;2023-04-24T07:24:55;14.00;1.00
3023;DHT22;1521;53.584;9.938;2023-04-24T07:27:21;13.70;1.00
3023;DHT22;1521;53.584;9.938;2023-04-24T07:29:46;13.40;1.00
3023;DHT22;1521;53.584;9.938;2023-04-24T07:32:12;13.80;1.00
3023;DHT22;1521;53.584;9.938;2023-04-24T07:34:38;14.20;1.00
3023;DHT22;1521;53.584;9.938;2023-04-24T07:37:03;14.60;1.00
3023;DHT22;1521;53.584;9.938;2023-04-24T07:39:29;14.70;1.00
3023;DHT22;1521;53.584;9.938;2023-04-24T07:41:55;14.50;1.00
3023;DHT22;1521;53.584;9.938;2023-04-24T07:44:20;14.30;1.00
3023;DHT22;1521;53.584;9.938;2023-04-24T07:46:46;14.10;1.00
3023;DHT22;1521;53.584;9.938;2023-04-24T07:49:12;14.10;1.00
3023;DHT22;1521;53.584;9.938;2023-04-24T07:51:37;14.40;1.00
3023;DHT22;1521;53.584;9.938;2023-04-24T07:54:04;14.50;1.00
3023;DHT22;1521;53.584;9.938;2023-04-24T07:56:31;14.30;1.00
3023;DHT22;1521;53.584;9.938;2023-04-24T07:58:57;14.00;1.00
3023;DHT22;1521;53.584;9.938;2023-04-24T08:01:22;13.90;1.00
3023;DHT22;1521;53.584;9.938;2023-04-24T08:03:48;13.80;1.00
3023;DHT22;1521;53.584;9.938;2023-04-24T08:06:13;13.80;1.00
3023;DHT22;1521;53.584;9.938;2023-04-24T08:08:39;13.90;1.00
3023;DHT22;1521;53.584;9.938;2023-04-24T08:11:05;14.10;1.00
3023;DHT22;1521;53.584;9.938;2023-04-24T08:13:31;14.40;1.00
3023;DHT22;1521;53.584;9.938;2023-04-24T08:15:56;14.50;1.00
3023;DHT22;1521;53.584;9.938;2023-04-24T08:18:22;14.50;1.00
3023;DHT22;1521;53.584;9.938;2023-04-24T08:20:48;14.20;1.00
3023;DHT22;1521;53.584;9.938;2023-04-24T08:23:13;14.10;1.00
3023;DHT22;1521;53.584;9.938;2023-04-24T08:25:39;14.00;1.00
3023;DHT22;1521;53.584;9.938;2023-04-24T08:28:06;14.10;1.00
3023;DHT22;1521;53.584;9.938;2023-04-24T08:30:32;13.90;1.00
3023;DHT22;1521;53.584;9.938;2023-04-24T08:32:57;13.60;1.00
3023;DHT22;1521;53.584;9.938;2023-04-24T08:35:23;13.40;1.00
3023;DHT22;1521;53.584;9.938;2023-04-24T08:37:49;13.20;1.00
3023;DHT22;1521;53.584;9.938;2023-04-24T08:40:15;13.30;1.00
3023;DHT22;1521;53.584;9.938;2023-04-24T08:42:42;13.30;1.00
3023;DHT22;1521;53.584;9.938;2023-04-24T08:45:12;13.30;1.00
3023;DHT22;1521;53.584;9.938;2023-04-24T08:47:39;13.20;1.00
3023;DHT22;1521;53.584;9.938;2023-04-24T08:50:06;13.20;1.00
3023;DHT22;1521;53.584;9.938;2023-04-24T08:52:33;13.30;1.00
3023;DHT22;1521;53.584;9.938;2023-04-24T08:55:00;13.40;1.00
3023;DHT22;1521;53.584;9.938;2023-04-24T08:57:27;13.50;1.00
3023;DHT22;1521;53.584;9.938;2023-04-24T08:59:53;13.50;1.00
3023;DHT22;1521;53.584;9.938;2023-04-24T09:02:19;13.60;1.00
3023;DHT22;1521;53.584;9.938;2023-04-24T09:04:47;13.70;1.00
3023;DHT22;1521;53.584;9.938;2023-04-24T09:07:14;13.80;1.00
3023;DHT22;1521;53.584;9.938;2023-04-24T09:09:42;14.00;1.00
3023;DHT22;1521;53.584;9.938;2023-04-24T09:12:07;14.40;1.00
3023;DHT22;1521;53.584;9.938;2023-04-24T09:14:35;14.70;1.00
3023;DHT22;1521;53.584;9.938;2023-04-24T09:17:05;15.00;1.00
3023;DHT22;1521;53.584;9.938;2023-04-24T09:19:31;14.80;1.00
3023;DHT22;1521;53.584;9.938;2023-04-24T09:21:57;14.40;1.00
3023;DHT22;1521;53.584;9.938;2023-04-24T09:24:22;14.40;1.00
3023;DHT22;1521;53.584;9.938;2023-04-24T09:26:49;14.50;1.00
3023;DHT22;1521;53.584;9.938;2023-04-24T09:29:18;14.20;1.00
3023;DHT22;1521;53.584;9.938;2023-04-24T09:31:45;14.00;1.00
3023;DHT22;1521;53.584;9.938;2023-04-24T09:34:11;14.10;1.00
3023;DHT22;1521;53.584;9.938;2023-04-24T09:36:38;14.00;1.00
3023;DHT22;1521;53.584;9.938;2023-04-24T09:39:14;13.90;1.00
3023;DHT22;1521;53.584;9.938;2023-04-24T09:41:55;13.90;1.00
3023;DHT22;1521;53.584;9.938;2023-04-24T09:44:24;13.60;1.00
3023;DHT22;1521;53.584;9.938;2023-04-24T09:46:57;13.50;1.00
3023;DHT22;1521;53.584;9.938;2023-04-24T09:49:25;13.30;1.00
3023;DHT22;1521;53.584;9.938;2023-04-24T09:51:51;13.20;1.00
3023;DHT22;1521;53.584;9.938;2023-04-24T09:54:19;13.10;1.00
3023;DHT22;1521;53.584;9.938;2023-04-24T09:56:49;13.10;1.00
3023;DHT22;1521;53.584;9.938;2023-04-24T09:59:17;13.00;1.00
3023;DHT22;1521;53.584;9.938;2023-04-24T10:01:43;12.90;1.00
3023;DHT22;1521;53.584;9.938;2023-04-24T10:04:30;12.90;1.00
3023;DHT22;1521;53.584;9.938;2023-04-24T10:06:56;12.90;1.00
3023;DHT22;1521;53.584;9.938;2023-04-24T10:09:24;12.90;1.00
3023;DHT22;1521;53.584;9.938;2023-04-24T10:11:51;12.90;1.00
3023;DHT22;1521;53.584;9.938;2023-04-24T10:14:20;13.00;1.00
3023;DHT22;1521;53.584;9.938;2023-04-24T10:16:49;13.00;1.00
3023;DHT22;1521;53.584;9.938;2023-04-24T10:19:16;13.00;1.00
3023;DHT22;1521;53.584;9.938;2023-04-24T10:21:43;13.00;1.00
3023;DHT22;1521;53.584;9.938;2023-04-24T10:24:13;13.00;1.00
3023;DHT22;1521;53.584;9.938;2023-04-24T10:26:40;13.10;1.00
3023;DHT22;1521;53.584;9.938;2023-04-24T10:29:06;13.10;1.00
3023;DHT22;1521;53.584;9.938;2023-04-24T10:31:36;13.20;1.00
3023;DHT22;1521;53.584;9.938;2023-04-24T10:34:03;13.30;1.00
3023;DHT22;1521;53.584;9.938;2023-04-24T10:36:30;13.30;1.00
3023;DHT22;1521;53.584;9.938;2023-04-24T10:38:59;13.20;1.00
3023;DHT22;1521;53.584;9.938;2023-04-24T10:41:26;13.00;1.00
3023;DHT22;1521;53.584;9.938;2023-04-24T10:46:31;13.30;1.00
3023;DHT22;1521;53.584;9.938;2023-04-24T10:48:57;13.40;1.00
3023;DHT22;1521;53.584;9.938;2023-04-24T10:51:24;13.40;1.00
3023;DHT22;1521;53.584;9.938;2023-04-24T10:53:52;13.40;1.00
3023;DHT22;1521;53.584;9.938;2023-04-24T10:56:18;13.60;1.00
3023;DHT22;1521;53.584;9.938;2023-04-24T10:58:51;13.80;1.00
3023;DHT22;1521;53.584;9.938;2023-04-24T11:01:31;13.90;1.00
3023;DHT22;1521;53.584;9.938;2023-04-24T11:04:02;13.90;1.00
3023;DHT22;1521;53.584;9.938;2023-04-24T11:06:37;13.70;1.00
3023;DHT22;1521;53.584;9.938;2023-04-24T11:09:10;13.60;1.00
3023;DHT22;1521;53.584;9.938;2023-04-24T11:11:45;13.70;1.00
3023;DHT22;1521;53.584;9.938;2023-04-24T11:14:14;13.80;1.00
3023;DHT22;1521;53.584;9.938;2023-04-24T11:16:50;13.80;1.00
3023;DHT22;1521;53.584;9.938;2023-04-24T11:21:57;13.80;1.00
3023;DHT22;1521;53.584;9.938;2023-04-24T11:24:39;13.90;1.00
3023;DHT22;1521;53.584;9.938;2023-04-24T11:27:18;14.10;1.00
3023;DHT22;1521;53.584;9.938;2023-04-24T11:32:30;14.20;1.00
3023;DHT22;1521;53.584;9.938;2023-04-24T11:34:57;13.90;1.00
3023;DHT22;1521;53.584;9.938;2023-04-24T11:37:26;13.70;1.00
3023;DHT22;1521;53.584;9.938;2023-04-24T11:39:53;13.80;1.00
3023;DHT22;1521;53.584;9.938;2023-04-24T11:42:21;13.80;1.00
3023;DHT22;1521;53.584;9.938;2023-04-24T11:44:47;13.70;1.00
3023;DHT22;1521;53.584;9.938;2023-04-24T11:47:14;13.70;1.00
3023;DHT22;1521;53.584;9.938;2023-04-24T11:49:40;13.70;1.00
3023;DHT22;1521;53.584;9.938;2023-04-24T11:52:06;13.60;1.00
3023;DHT22;1521;53.584;9.938;2023-04-24T11:54:32;13.60;1.00
3023;DHT22;1521;53.584;9.938;2023-04-24T11:56:58;13.50;1.00
3023;DHT22;1521;53.584;9.938;2023-04-24T11:59:23;13.40;1.00
3023;DHT22;1521;53.584;9.938;2023-04-24T12:01:49;13.20;1.00
3023;DHT22;1521;53.584;9.938;2023-04-24T12:04:16;13.20;1.00
3023;DHT22;1521;53.584;9.938;2023-04-24T12:07:04;13.40;1.00
3023;DHT22;1521;53.584;9.938;2023-04-24T12:09:55;13.70;1.00
3023;DHT22;1521;53.584;9.938;2023-04-24T12:12:25;13.70;1.00
3023;DHT22;1521;53.584;9.938;2023-04-24T12:17:28;13.90;1.00
3023;DHT22;1521;53.584;9.938;2023-04-24T12:20:01;13.90;1.00
3023;DHT22;1521;53.584;9.938;2023-04-24T12:22:28;13.90;1.00
3023;DHT22;1521;53.584;9.938;2023-04-24T12:25:01;13.70;1.00
3023;DHT22;1521;53.584;9.938;2023-04-24T12:27:31;13.50;1.00
3023;DHT22;1521;53.584;9.938;2023-04-24T12:29:59;13.40;1.00
3023;DHT22;1521;53.584;9.938;2023-04-24T12:32:25;13.40;1.00
3023;DHT22;1521;53.584;9.938;2023-04-24T12:34:52;13.30;1.00
3023;DHT22;1521;53.584;9.938;2023-04-24T12:37:18;13.20;1.00
3023;DHT22;1521;53.584;9.938;2023-04-24T12:40:04;13.10;1.00
3023;DHT22;1521;53.584;9.938;2023-04-24T12:42:34;13.00;1.00
3023;DHT22;1521;53.584;9.938;2023-04-24T12:45:05;12.90;1.00
3023;DHT22;1521;53.584;9.938;2023-04-24T12:47:32;12.80;1.00
3023;DHT22;1521;53.584;9.938;2023-04-24T12:49:58;12.80;1.00
3023;DHT22;1521;53.584;9.938;2023-04-24T12:52:25;12.80;1.00
3023;DHT22;1521;53.584;9.938;2023-04-24T12:54:58;12.80;1.00
3023;DHT22;1521;53.584;9.938;2023-04-24T12:57:25;12.70;1.00
3023;DHT22;1521;53.584;9.938;2023-04-24T12:59:54;12.60;1.00
3023;DHT22;1521;53.584;9.938;2023-04-24T13:02:20;12.50;1.00
3023;DHT22;1521;53.584;9.938;2023-04-24T13:04:47;12.40;1.00
3023;DHT22;1521;53.584;9.938;2023-04-24T13:07:14;12.40;1.00
3023;DHT22;1521;53.584;9.938;2023-04-24T13:09:40;12.40;1.00
3023;DHT22;1521;53.584;9.938;2023-04-24T13:12:06;12.40;1.00
3023;DHT22;1521;53.584;9.938;2023-04-24T13:14:32;12.40;1.00
3023;DHT22;1521;53.584;9.938;2023-04-24T13:16:58;12.30;1.00
3023;DHT22;1521;53.584;9.938;2023-04-24T13:19:27;12.30;1.00
3023;DHT22;1521;53.584;9.938;2023-04-24T13:21:55;12.40;1.00
3023;DHT22;1521;53.584;9.938;2023-04-24T13:24:21;12.50;1.00
3023;DHT22;1521;53.584;9.938;2023-04-24T13:26:50;12.50;1.00
3023;DHT22;1521;53.584;9.938;2023-04-24T13:29:16;12.50;1.00
3023;DHT22;1521;53.584;9.938;2023-04-24T13:31:42;12.50;1.00
3023;DHT22;1521;53.584;9.938;2023-04-24T13:34:07;12.40;1.00
3023;DHT22;1521;53.584;9.938;2023-04-24T13:36:33;12.30;1.00
3023;DHT22;1521;53.584;9.938;2023-04-24T13:38:59;12.20;1.00
3023;DHT22;1521;53.584;9.938;2023-04-24T13:41:24;12.20;1.00
3023;DHT22;1521;53.584;9.938;2023-04-24T13:43:50;12.10;1.00
3023;DHT22;1521;53.584;9.938;2023-04-24T13:46:16;12.10;1.00
3023;DHT22;1521;53.584;9.938;2023-04-24T13:48:42;12.10;1.00
3023;DHT22;1521;53.584;9.938;2023-04-24T13:51:07;12.00;1.00
3023;DHT22;1521;53.584;9.938;2023-04-24T13:53:33;12.10;1.00
3023;DHT22;1521;53.584;9.938;2023-04-24T13:56:03;12.20;1.00
3023;DHT22;1521;53.584;9.938;2023-04-24T13:58:29;12.30;1.00
3023;DHT22;1521;53.584;9.938;2023-04-24T14:00:55;12.40;1.00
3023;DHT22;1521;53.584;9.938;2023-04-24T14:03:21;12.40;1.00
3023;DHT22;1521;53.584;9.938;2023-04-24T14:05:46;12.50;1.00
3023;DHT22;1521;53.584;9.938;2023-04-24T14:08:12;12.50;1.00
3023;DHT22;1521;53.584;9.938;2023-04-24T14:10:37;12.50;1.00
3023;DHT22;1521;53.584;9.938;2023-04-24T14:13:03;12.50;1.00
3023;DHT22;1521;53.584;9.938;2023-04-24T14:15:28;12.40;1.00
3023;DHT22;1521;53.584;9.938;2023-04-24T14:17:55;12.30;1.00
3023;DHT22;1521;53.584;9.938;2023-04-24T14:20:20;12.30;1.00
3023;DHT22;1521;53.584;9.938;2023-04-24T14:22:46;12.30;1.00
3023;DHT22;1521;53.584;9.938;2023-04-24T14:25:11;12.20;1.00
3023;DHT22;1521;53.584;9.938;2023-04-24T14:27:37;12.10;1.00
3023;DHT22;1521;53.584;9.938;2023-04-24T14:30:04;12.10;1.00
3023;DHT22;1521;53.584;9.938;2023-04-24T14:32:29;11.90;1.00
3023;DHT22;1521;53.584;9.938;2023-04-24T14:34:55;11.80;1.00
3023;DHT22;1521;53.584;9.938;2023-04-24T14:37:21;11.70;1.00
3023;DHT22;1521;53.584;9.938;2023-04-24T14:39:46;11.50;1.00
3023;DHT22;1521;53.584;9.938;2023-04-24T14:42:12;11.30;1.00
3023;DHT22;1521;53.584;9.938;2023-04-24T14:44:37;11.10;99.90
3023;DHT22;1521;53.584;9.938;2023-04-24T14:47:03;11.10;99.90
3023;DHT22;1521;53.584;9.938;2023-04-24T14:49:28;11.10;1.00
3023;DHT22;1521;53.584;9.938;2023-04-24T14:51:54;11.00;1.00
3023;DHT22;1521;53.584;9.938;2023-04-24T14:54:20;11.00;1.00
3023;DHT22;1521;53.584;9.938;2023-04-24T14:56:48;11.00;1.00
3023;DHT22;1521;53.584;9.938;2023-04-24T14:59:14;10.90;99.90
3023;DHT22;1521;53.584;9.938;2023-04-24T15:01:40;10.80;99.90
3023;DHT22;1521;53.584;9.938;2023-04-24T15:04:05;10.70;1.00
3023;DHT22;1521;53.584;9.938;2023-04-24T15:06:31;10.60;99.90
3023;DHT22;1521;53.584;9.938;2023-04-24T15:08:57;10.60;1.00
3023;DHT22;1521;53.584;9.938;2023-04-24T15:11:23;10.50;1.00
3023;DHT22;1521;53.584;9.938;2023-04-24T15:13:49;10.40;97.20
3023;DHT22;1521;53.584;9.938;2023-04-24T15:16:15;10.40;99.90
3023;DHT22;1521;53.584;9.938;2023-04-24T15:18:41;10.20;99.90
3023;DHT22;1521;53.584;9.938;2023-04-24T15:21:07;10.10;99.90
3023;DHT22;1521;53.584;9.938;2023-04-24T15:23:32;10.10;99.90
3023;DHT22;1521;53.584;9.938;2023-04-24T15:25:58;10.00;1.00
3023;DHT22;1521;53.584;9.938;2023-04-24T15:28:24;9.90;99.90
3023;DHT22;1521;53.584;9.938;2023-04-24T15:30:50;9.80;90.30
3023;DHT22;1521;53.584;9.938;2023-04-24T15:33:16;9.80;1.00
3023;DHT22;1521;53.584;9.938;2023-04-24T15:35:41;9.70;1.00
3023;DHT22;1521;53.584;9.938;2023-04-24T15:38:07;9.60;1.00
3023;DHT22;1521;53.584;9.938;2023-04-24T15:40:33;9.60;1.00
3023;DHT22;1521;53.584;9.938;2023-04-24T15:42:58;9.60;99.90
3023;DHT22;1521;53.584;9.938;2023-04-24T15:45:24;9.60;99.90
3023;DHT22;1521;53.584;9.938;2023-04-24T15:47:50;9.50;99.90
3023;DHT22;1521;53.584;9.938;2023-04-24T15:50:16;9.50;1.00
3023;DHT22;1521;53.584;9.938;2023-04-24T15:52:44;9.50;99.90
3023;DHT22;1521;53.584;9.938;2023-04-24T15:55:11;9.30;99.90
3023;DHT22;1521;53.584;9.938;2023-04-24T15:57:37;9.20;1.00
3023;DHT22;1521;53.584;9.938;2023-04-24T16:00:03;9.10;1.00
3023;DHT22;1521;53.584;9.938;2023-04-24T16:02:31;9.10;1.00
3023;DHT22;1521;53.584;9.938;2023-04-24T16:04:57;9.00;99.90
3023;DHT22;1521;53.584;9.938;2023-04-24T16:07:22;8.80;1.00
3023;DHT22;1521;53.584;9.938;2023-04-24T16:09:48;8.90;13.30
3023;DHT22;1521;53.584;9.938;2023-04-24T16:12:14;8.80;1.00
3023;DHT22;1521;53.584;9.938;2023-04-24T16:14:40;8.70;1.00
3023;DHT22;1521;53.584;9.938;2023-04-24T16:17:05;8.50;69.50
3023;DHT22;1521;53.584;9.938;2023-04-24T16:19:31;8.50;99.90
3023;DHT22;1521;53.584;9.938;2023-04-24T16:21:58;8.30;96.70